createdAt,value
2022-11-17T00:01:07.167Z,97258.28
2022-11-17T00:03:52.845Z,97258.28
2022-11-17T00:06:37.866Z,97249.59
2022-11-17T00:09:23.243Z,97247.41
2022-11-17T00:12:32.417Z,97228.47
2022-11-17T00:15:17.906Z,97232.09
2022-11-17T00:18:21.548Z,97220.59
2022-11-17T00:21:23.405Z,97215.53
2022-11-17T00:24:08.345Z,97196.19
2022-11-17T00:27:02.655Z,97203.28
2022-11-17T00:29:47.654Z,97185.31
2022-11-17T00:32:51.636Z,97192.63
2022-11-17T00:35:36.761Z,97183.75
2022-11-17T00:38:21.988Z,97180.75
2022-11-17T00:41:07.132Z,97164.03
2022-11-17T00:43:51.883Z,97165.25
2022-11-17T00:46:37.999Z,97164.25
2022-11-17T00:49:26.503Z,97159.19
2022-11-17T00:52:11.813Z,97150.13
2022-11-17T00:54:56.892Z,97122.47
2022-11-17T00:57:42.121Z,97146.94
2022-11-17T01:00:27.256Z,97114.03
2022-11-17T01:03:12.449Z,97131.00
2022-11-17T01:06:13.586Z,97129.00
2022-11-17T01:09:00.587Z,97130.59
2022-11-17T01:11:47.370Z,97127.38
2022-11-17T01:14:32.693Z,97127.78
2022-11-17T01:17:17.448Z,97102.75
2022-11-17T01:20:02.478Z,97120.94
2022-11-17T01:22:47.517Z,97132.81
2022-11-17T01:25:32.836Z,97129.41
2022-11-17T01:28:18.141Z,97107.81
2022-11-17T01:31:16.519Z,97105.16
2022-11-17T01:34:01.803Z,97118.28
2022-11-17T01:37:05.598Z,97131.81
2022-11-17T01:39:51.033Z,97144.50
2022-11-17T01:42:41.922Z,97131.38
2022-11-17T01:45:27.104Z,97138.84
2022-11-17T01:48:15.179Z,97137.25
2022-11-17T01:51:00.993Z,97145.13
2022-11-17T01:53:50.254Z,97152.34
2022-11-17T01:56:40.138Z,97166.47
2022-11-17T01:59:28.445Z,97176.97
2022-11-17T02:02:13.614Z,97189.66
2022-11-17T02:05:08.076Z,97179.81
2022-11-17T02:07:56.238Z,97194.28
2022-11-17T02:10:45.806Z,97188.41
2022-11-17T02:13:35.475Z,97201.13
2022-11-17T02:16:20.907Z,97210.81
2022-11-17T02:19:07.867Z,97211.84
2022-11-17T02:22:21.331Z,97219.28
2022-11-17T02:25:21.758Z,97224.53
2022-11-17T02:28:20.660Z,97231.16
2022-11-17T02:31:17.818Z,97238.19
2022-11-17T02:34:29.781Z,97246.63
2022-11-17T02:37:31.617Z,97261.56
2022-11-17T02:40:31.052Z,97258.44
2022-11-17T02:43:38.027Z,97283.00
2022-11-17T02:46:25.693Z,97286.41
2022-11-17T02:49:25.663Z,97291.53
2022-11-17T02:52:12.450Z,97299.72
2022-11-17T02:55:09.929Z,97303.16
2022-11-17T02:57:55.183Z,97320.50
2022-11-17T03:00:55.664Z,97325.22
2022-11-17T03:04:25.921Z,97345.84
2022-11-17T03:07:28.976Z,97356.34
2022-11-17T03:10:14.267Z,97370.34
2022-11-17T03:13:18.244Z,97382.28
2022-11-17T03:16:15.665Z,97388.16
2022-11-17T03:19:15.903Z,97406.06
2022-11-17T03:22:12.001Z,97400.78
2022-11-17T03:25:02.964Z,97390.41
2022-11-17T03:27:56.325Z,97385.91
2022-11-17T03:30:44.128Z,97407.50
2022-11-17T03:33:30.293Z,97424.34
2022-11-17T03:36:24.044Z,97436.63
2022-11-17T03:39:16.339Z,97451.28
2022-11-17T03:42:13.053Z,97460.84
2022-11-17T03:45:04.440Z,97470.00
2022-11-17T03:47:57.037Z,97475.25
2022-11-17T03:50:55.425Z,97482.44
2022-11-17T03:53:41.751Z,97496.03
2022-11-17T03:56:51.196Z,97496.91
2022-11-17T03:59:51.937Z,97515.72
2022-11-17T04:02:40.254Z,97519.13
2022-11-17T04:05:25.541Z,97535.94
2022-11-17T04:08:10.643Z,97530.91
2022-11-17T04:11:15.276Z,97522.97
2022-11-17T04:14:19.141Z,97550.81
2022-11-17T04:17:04.377Z,97564.06
2022-11-17T04:19:49.223Z,97564.88
2022-11-17T04:22:34.060Z,97575.47
2022-11-17T04:25:39.006Z,97578.78
2022-11-17T04:28:37.460Z,97592.84
2022-11-17T04:31:30.579Z,97617.78
2022-11-17T04:34:15.533Z,97615.34
2022-11-17T04:37:05.429Z,97624.16
2022-11-17T04:39:53.532Z,97629.72
2022-11-17T04:42:38.693Z,97643.59
2022-11-17T04:45:26.365Z,97653.41
2022-11-17T04:48:11.205Z,97624.44
2022-11-17T04:50:57.176Z,97658.16
2022-11-17T04:53:43.272Z,97667.13
2022-11-17T04:56:29.353Z,97670.06
2022-11-17T04:59:14.688Z,97679.88
2022-11-17T05:02:05.320Z,97661.66
2022-11-17T05:04:56.795Z,97680.38
2022-11-17T05:07:41.674Z,97700.91
2022-11-17T05:10:45.232Z,97690.81
2022-11-17T05:13:30.449Z,97685.78
2022-11-17T05:16:34.149Z,97699.63
2022-11-17T05:19:22.731Z,97720.69
2022-11-17T05:22:27.878Z,97720.81
2022-11-17T05:25:13.086Z,97711.25
2022-11-17T05:27:58.176Z,97716.75
2022-11-17T05:30:43.246Z,97736.16
2022-11-17T05:33:28.158Z,97746.94
2022-11-17T05:36:14.860Z,97751.34
2022-11-17T05:39:00.024Z,97772.56
2022-11-17T05:41:45.184Z,97764.88
2022-11-17T05:44:30.343Z,97769.13
2022-11-17T05:47:15.637Z,97772.25
2022-11-17T05:50:00.884Z,97782.84
2022-11-17T05:52:45.857Z,97767.00
2022-11-17T05:55:31.189Z,97795.38
2022-11-17T05:58:30.133Z,97804.69
2022-11-17T06:01:17.576Z,97824.06
2022-11-17T06:04:04.600Z,97811.84
2022-11-17T06:06:50.401Z,97829.94
2022-11-17T06:09:39.082Z,97823.41
2022-11-17T06:12:24.357Z,97834.69
2022-11-17T06:15:09.972Z,97843.66
2022-11-17T06:18:01.374Z,97843.13
2022-11-17T06:20:49.657Z,97860.28
2022-11-17T06:23:37.193Z,97871.38
2022-11-17T06:26:22.648Z,97870.53
2022-11-17T06:29:09.734Z,97887.16
2022-11-17T06:31:58.036Z,97875.44
2022-11-17T06:34:46.152Z,97879.00
2022-11-17T06:37:34.272Z,97877.53
2022-11-17T06:40:19.575Z,97894.97
2022-11-17T06:43:10.871Z,97901.84
2022-11-17T06:45:55.957Z,97901.31
2022-11-17T06:48:41.477Z,97915.34
2022-11-17T06:51:26.766Z,97914.88
2022-11-17T06:54:12.410Z,97912.72
2022-11-17T06:56:58.282Z,97897.06
2022-11-17T06:59:43.242Z,97922.84
2022-11-17T07:02:28.263Z,97934.41
2022-11-17T07:05:13.505Z,97933.59
2022-11-17T07:08:00.298Z,97940.28
2022-11-17T07:10:49.300Z,97944.84
2022-11-17T07:13:35.052Z,97947.63
2022-11-17T07:16:23.845Z,97948.56
2022-11-17T07:19:10.625Z,97953.78
2022-11-17T07:21:55.524Z,97972.22
2022-11-17T07:24:40.654Z,97938.22
2022-11-17T07:27:26.039Z,97974.66
2022-11-17T07:30:11.722Z,97973.69
2022-11-17T07:33:00.923Z,97967.78
2022-11-17T07:35:46.671Z,97994.72
2022-11-17T07:38:36.300Z,97999.78
2022-11-17T07:41:21.407Z,97999.59
2022-11-17T07:44:06.490Z,98005.94
2022-11-17T07:46:51.762Z,98012.16
2022-11-17T07:49:37.037Z,97997.41
2022-11-17T07:52:22.319Z,98022.09
2022-11-17T07:55:07.865Z,98021.13
2022-11-17T07:58:00.650Z,98028.78
2022-11-17T08:00:45.642Z,98032.88
2022-11-17T08:03:30.608Z,98031.09
2022-11-17T08:06:16.951Z,98042.50
2022-11-17T08:09:01.953Z,98027.50
2022-11-17T08:11:47.196Z,98048.06
2022-11-17T08:14:32.583Z,98049.69
2022-11-17T08:17:17.889Z,98049.41
2022-11-17T08:20:05.120Z,98045.81
2022-11-17T08:22:51.669Z,98051.69
2022-11-17T08:25:36.895Z,98070.31
2022-11-17T08:28:22.588Z,98049.41
2022-11-17T08:31:08.095Z,98066.25
2022-11-17T08:33:53.288Z,98071.97
2022-11-17T08:36:38.627Z,98076.38
2022-11-17T08:39:23.770Z,98092.38
2022-11-17T08:42:08.905Z,98093.72
2022-11-17T08:44:54.187Z,98076.38
2022-11-17T08:47:40.124Z,98097.81
2022-11-17T08:50:25.997Z,98081.13
2022-11-17T08:53:14.595Z,98099.28
2022-11-17T08:56:00.061Z,98091.09
2022-11-17T08:58:45.082Z,98108.81
2022-11-17T09:01:30.452Z,98093.75
2022-11-17T09:04:15.778Z,98109.28
2022-11-17T09:07:00.831Z,98111.25
2022-11-17T09:09:46.367Z,98112.59
2022-11-17T09:12:31.556Z,98105.09
2022-11-17T09:15:16.830Z,98102.19
2022-11-17T09:18:03.163Z,98121.47
2022-11-17T09:20:48.218Z,98109.38
2022-11-17T09:23:33.880Z,98091.41
2022-11-17T09:26:19.490Z,98117.75
2022-11-17T09:29:04.866Z,98114.34
2022-11-17T09:31:50.134Z,98123.00
2022-11-17T09:34:35.470Z,98127.09
2022-11-17T09:37:20.666Z,98137.88
2022-11-17T09:40:06.827Z,98141.16
2022-11-17T09:42:52.206Z,98124.16
2022-11-17T09:45:39.069Z,98147.88
2022-11-17T09:48:45.246Z,98157.19
2022-11-17T09:51:33.892Z,98145.75
2022-11-17T09:54:33.835Z,98167.31
2022-11-17T09:57:28.928Z,98160.44
2022-11-17T10:00:19.204Z,98169.94
2022-11-17T10:03:14.768Z,98171.22
2022-11-17T10:06:03.888Z,98176.13
2022-11-17T10:08:58.370Z,98179.06
2022-11-17T10:11:44.316Z,98177.78
2022-11-17T10:14:30.145Z,98182.34
2022-11-17T10:17:15.753Z,98192.13
2022-11-17T10:20:00.788Z,98191.13
2022-11-17T10:22:47.634Z,98203.25
2022-11-17T10:25:42.520Z,98208.00
2022-11-17T10:28:30.920Z,98201.59
2022-11-17T10:31:18.032Z,98172.19
2022-11-17T10:34:03.698Z,98206.81
2022-11-17T10:36:48.689Z,98206.88
2022-11-17T10:39:37.349Z,98212.09
2022-11-17T10:42:27.762Z,98208.97
2022-11-17T10:45:17.892Z,98212.25
2022-11-17T10:48:20.063Z,98217.97
2022-11-17T10:51:19.290Z,98204.25
2022-11-17T10:54:04.144Z,98241.22
2022-11-17T10:56:56.030Z,98233.19
2022-11-17T10:59:57.582Z,98233.03
2022-11-17T11:02:43.277Z,98215.22
2022-11-17T11:05:28.490Z,98232.72
2022-11-17T11:08:23.558Z,98232.06
2022-11-17T11:11:40.389Z,98234.34
2022-11-17T11:14:28.760Z,98235.19
2022-11-17T11:17:16.538Z,98227.47
2022-11-17T11:20:01.893Z,98222.56
2022-11-17T11:23:04.272Z,98233.84
2022-11-17T11:26:02.792Z,98228.28
2022-11-17T11:28:56.905Z,98237.78
2022-11-17T11:31:54.116Z,98249.56
2022-11-17T11:35:17.152Z,98250.22
2022-11-17T11:38:30.560Z,98232.38
2022-11-17T11:41:19.148Z,98242.53
2022-11-17T11:44:26.045Z,98243.16
2022-11-17T11:47:35.788Z,98246.28
2022-11-17T11:50:59.101Z,98250.69
2022-11-17T11:54:24.696Z,98245.91
2022-11-17T11:57:13.804Z,98248.84
2022-11-17T12:00:04.611Z,98241.47
2022-11-17T12:02:53.592Z,98247.38
2022-11-17T12:05:38.865Z,98257.50
2022-11-17T12:08:42.398Z,98246.56
2022-11-17T12:11:46.833Z,98264.88
2022-11-17T12:14:36.719Z,98266.03
2022-11-17T12:17:26.287Z,98261.31
2022-11-17T12:20:30.453Z,98259.16
2022-11-17T12:23:32.928Z,98239.88
2022-11-17T12:26:25.875Z,98247.22
2022-11-17T12:29:31.869Z,98260.81
2022-11-17T12:32:45.195Z,98256.38
2022-11-17T12:35:33.540Z,98251.94
2022-11-17T12:38:19.897Z,98258.97
2022-11-17T12:41:06.334Z,98267.84
2022-11-17T12:43:51.323Z,98279.94
2022-11-17T12:46:36.562Z,98256.38
2022-11-17T12:49:36.491Z,98269.13
2022-11-17T12:52:37.498Z,98274.22
2022-11-17T12:55:41.674Z,98273.88
2022-11-17T12:58:48.898Z,98275.16
2022-11-17T13:02:03.908Z,98278.44
2022-11-17T13:04:55.203Z,98267.84
2022-11-17T13:07:40.470Z,98273.19
2022-11-17T13:10:31.160Z,98284.19
2022-11-17T13:13:19.389Z,98278.22
2022-11-17T13:16:04.848Z,98292.63
2022-11-17T13:18:50.098Z,98289.97
2022-11-17T13:21:35.375Z,98277.03
2022-11-17T13:24:50.561Z,98306.16
2022-11-17T13:27:36.226Z,98307.78
2022-11-17T13:30:25.707Z,98301.91
2022-11-17T13:33:19.889Z,98306.31
2022-11-17T13:36:19.797Z,98312.38
2022-11-17T13:39:19.655Z,98316.63
2022-11-17T13:42:08.006Z,98313.13
2022-11-17T13:44:56.003Z,98318.69
2022-11-17T13:47:45.357Z,98321.97
2022-11-17T13:50:30.861Z,98306.44
2022-11-17T13:53:26.668Z,98327.56
2022-11-17T13:56:33.880Z,98322.84
2022-11-17T13:59:26.084Z,98326.31
2022-11-17T14:02:19.325Z,98312.13
2022-11-17T14:05:14.211Z,98314.09
2022-11-17T14:08:14.033Z,98310.75
2022-11-17T14:11:14.741Z,98326.44
2022-11-17T14:14:01.185Z,98336.63
2022-11-17T14:16:46.539Z,98322.06
2022-11-17T14:19:33.985Z,98345.66
2022-11-17T14:22:31.406Z,98353.34
2022-11-17T14:25:17.153Z,98339.91
2022-11-17T14:28:02.398Z,98353.66
2022-11-17T14:30:49.057Z,98348.75
2022-11-17T14:33:33.824Z,98349.41
2022-11-17T14:36:18.866Z,98361.25
2022-11-17T14:39:10.780Z,98357.31
2022-11-17T14:41:55.760Z,98349.13
2022-11-17T14:44:40.933Z,98344.91
2022-11-17T14:47:25.834Z,98359.97
2022-11-17T14:50:17.727Z,98361.44
2022-11-17T14:53:02.955Z,98365.19
2022-11-17T14:55:47.952Z,98372.44
2022-11-17T14:58:33.114Z,98354.06
2022-11-17T15:01:25.495Z,98373.91
2022-11-17T15:04:42.947Z,98372.94
2022-11-17T15:07:19.292Z,98378.34
2022-11-17T15:10:05.971Z,98385.88
2022-11-17T15:12:50.997Z,98388.81
2022-11-17T15:15:36.509Z,98365.25
2022-11-17T15:18:21.698Z,98385.72
2022-11-17T15:21:09.629Z,98394.56
2022-11-17T15:23:54.674Z,98400.94
2022-11-17T15:26:39.765Z,98405.88
2022-11-17T15:29:25.093Z,98402.75
2022-11-17T15:32:10.935Z,98405.56
2022-11-17T15:34:56.210Z,98406.19
2022-11-17T15:37:41.279Z,98392.13
2022-11-17T15:40:26.526Z,98397.84
2022-11-17T15:43:11.838Z,98420.59
2022-11-17T15:46:11.374Z,98418.94
2022-11-17T15:48:56.718Z,98425.66
2022-11-17T15:51:41.550Z,98423.84
2022-11-17T15:54:26.553Z,98425.38
2022-11-17T15:57:11.552Z,98408.81
2022-11-17T15:59:56.516Z,98426.00
2022-11-17T16:02:42.105Z,98423.22
2022-11-17T16:05:27.069Z,98430.41
2022-11-17T16:08:12.217Z,98437.25
2022-11-17T16:10:57.654Z,98429.19
2022-11-17T16:13:42.860Z,98429.00
2022-11-17T16:16:36.078Z,98431.94
2022-11-17T16:19:21.465Z,98434.22
2022-11-17T16:22:06.662Z,98439.94
2022-11-17T16:24:51.946Z,98447.59
2022-11-17T16:27:37.166Z,98440.41
2022-11-17T16:30:22.504Z,98440.69
2022-11-17T16:33:13.084Z,98451.81
2022-11-17T16:36:04.896Z,98452.81
2022-11-17T16:39:00.765Z,98460.19
2022-11-17T16:41:46.547Z,98456.72
2022-11-17T16:44:31.624Z,98459.34
2022-11-17T16:47:16.811Z,98458.84
2022-11-17T16:50:03.547Z,98455.94
2022-11-17T16:52:48.768Z,98452.50
2022-11-17T16:55:35.338Z,98457.72
2022-11-17T16:58:20.488Z,98461.34
2022-11-17T17:01:13.373Z,98461.13
2022-11-17T17:04:04.073Z,98468.31
2022-11-17T17:06:49.419Z,98465.16
2022-11-17T17:09:34.368Z,98458.09
2022-11-17T17:12:19.555Z,98466.75
2022-11-17T17:15:05.268Z,98466.38
2022-11-17T17:17:50.347Z,98479.81
2022-11-17T17:20:35.908Z,98484.25
2022-11-17T17:23:21.265Z,98485.38
2022-11-17T17:26:14.054Z,98496.94
2022-11-17T17:29:00.670Z,98498.56
2022-11-17T17:31:45.797Z,98504.94
2022-11-17T17:34:31.152Z,98512.22
2022-11-17T17:37:16.856Z,98497.78
2022-11-17T17:40:01.861Z,98524.44
2022-11-17T17:42:47.174Z,98521.16
2022-11-17T17:45:32.229Z,98530.13
2022-11-17T17:48:17.416Z,98510.44
2022-11-17T17:51:08.025Z,98541.56
2022-11-17T17:53:58.549Z,98541.03
2022-11-17T17:56:44.262Z,98550.81
2022-11-17T17:59:29.142Z,98540.81
2022-11-17T18:02:14.125Z,98539.94
2022-11-17T18:04:59.202Z,98554.31
2022-11-17T18:07:44.527Z,98551.34
2022-11-17T18:10:29.651Z,98557.69
2022-11-17T18:13:14.760Z,98557.47
2022-11-17T18:16:03.196Z,98564.63
2022-11-17T18:18:48.951Z,98567.41
2022-11-17T18:21:34.956Z,98575.69
2022-11-17T18:24:20.107Z,98576.69
2022-11-17T18:27:05.097Z,98572.03
2022-11-17T18:29:50.372Z,98575.75
2022-11-17T18:32:35.605Z,98583.75
2022-11-17T18:35:20.591Z,98565.81
2022-11-17T18:38:05.479Z,98573.88
2022-11-17T18:40:50.297Z,98581.56
2022-11-17T18:43:36.127Z,98587.78
2022-11-17T18:46:23.618Z,98586.28
2022-11-17T18:49:08.901Z,98581.31
2022-11-17T18:51:53.821Z,98592.06
2022-11-17T18:54:39.135Z,98590.72
2022-11-17T18:57:24.136Z,98595.28
2022-11-17T19:00:09.882Z,98604.91
2022-11-17T19:02:55.304Z,98598.91
2022-11-17T19:05:40.321Z,98596.88
2022-11-17T19:08:25.347Z,98612.47
2022-11-17T19:11:11.764Z,98616.38
2022-11-17T19:13:58.980Z,98626.75
2022-11-17T19:16:45.317Z,98625.09
2022-11-17T19:19:30.501Z,98627.13
2022-11-17T19:22:15.490Z,98629.59
2022-11-17T19:25:00.839Z,98634.72
2022-11-17T19:27:46.019Z,98638.34
2022-11-17T19:30:31.412Z,98638.09
2022-11-17T19:33:18.639Z,98640.88
2022-11-17T19:36:06.465Z,98631.50
2022-11-17T19:38:53.424Z,98649.91
2022-11-17T19:41:39.894Z,98656.53
2022-11-17T19:44:24.649Z,98660.81
2022-11-17T19:47:10.244Z,98669.44
2022-11-17T19:49:55.816Z,98640.81
2022-11-17T19:52:40.947Z,98665.06
2022-11-17T19:55:26.151Z,98676.75
2022-11-17T19:58:11.850Z,98687.47
2022-11-17T20:00:57.390Z,98685.69
2022-11-17T20:03:43.055Z,98685.28
2022-11-17T20:06:31.874Z,98694.34
2022-11-17T20:09:17.206Z,98691.88
2022-11-17T20:12:03.263Z,98691.31
2022-11-17T20:14:48.573Z,98688.47
2022-11-17T20:17:34.815Z,98699.16
2022-11-17T20:20:19.981Z,98697.78
2022-11-17T20:23:05.264Z,98710.97
2022-11-17T20:25:50.683Z,98708.50
2022-11-17T20:28:36.903Z,98705.09
2022-11-17T20:31:24.694Z,98718.94
2022-11-17T20:34:12.564Z,98720.88
2022-11-17T20:36:57.560Z,98720.03
2022-11-17T20:39:42.416Z,98732.53
2022-11-17T20:42:27.450Z,98734.06
2022-11-17T20:45:12.631Z,98740.91
2022-11-17T20:47:57.713Z,98746.13
2022-11-17T20:50:42.854Z,98748.03
2022-11-17T20:53:28.647Z,98740.06
2022-11-17T20:56:16.134Z,98749.13
2022-11-17T20:59:01.091Z,98760.41
2022-11-17T21:01:46.516Z,98763.13
2022-11-17T21:04:31.913Z,98762.31
2022-11-17T21:07:17.161Z,98752.97
2022-11-17T21:10:02.401Z,98768.75
2022-11-17T21:12:47.456Z,98778.91
2022-11-17T21:15:32.447Z,98785.38
2022-11-17T21:18:26.413Z,98794.41
2022-11-17T21:21:11.712Z,98788.81
2022-11-17T21:23:56.755Z,98773.69
2022-11-17T21:26:41.970Z,98791.13
2022-11-17T21:29:27.145Z,98805.13
2022-11-17T21:32:11.984Z,98802.94
2022-11-17T21:34:57.768Z,98804.97
2022-11-17T21:37:42.787Z,98813.75
2022-11-17T21:40:28.094Z,98804.81
2022-11-17T21:43:12.996Z,98831.31
2022-11-17T21:46:07.020Z,98808.66
2022-11-17T21:48:54.288Z,98831.41
2022-11-17T21:51:39.611Z,98831.84
2022-11-17T21:54:24.839Z,98837.06
2022-11-17T21:57:10.070Z,98829.75
2022-11-17T21:59:55.239Z,98829.34
2022-11-17T22:02:40.132Z,98853.63
2022-11-17T22:05:25.113Z,98845.00
2022-11-17T22:08:10.271Z,98837.16
2022-11-17T22:10:55.405Z,98841.78
2022-11-17T22:13:41.154Z,98862.97
2022-11-17T22:16:26.618Z,98865.56
2022-11-17T22:19:12.735Z,98873.38
2022-11-17T22:21:57.978Z,98872.56
2022-11-17T22:24:48.443Z,98872.56
2022-11-17T22:27:35.436Z,98865.63
2022-11-17T22:30:20.620Z,98887.50
2022-11-17T22:33:05.627Z,98885.38
2022-11-17T22:35:50.796Z,98895.00
2022-11-17T22:38:44.924Z,98897.47
2022-11-17T22:41:30.333Z,98894.44
2022-11-17T22:44:16.299Z,98900.72
2022-11-17T22:47:01.150Z,98882.44
2022-11-17T22:49:46.169Z,98907.31
2022-11-17T22:52:30.900Z,98910.06
2022-11-17T22:55:16.094Z,98912.78
2022-11-17T22:58:01.208Z,98918.16
2022-11-17T23:00:46.413Z,98925.97
2022-11-17T23:03:31.879Z,98924.19
2022-11-17T23:06:17.092Z,98924.88
2022-11-17T23:09:02.388Z,98930.91
2022-11-17T23:11:47.840Z,98932.81
2022-11-17T23:14:33.095Z,98912.44
2022-11-17T23:17:19.625Z,98944.47
2022-11-17T23:20:05.243Z,98933.00
2022-11-17T23:22:54.737Z,98956.09
2022-11-17T23:25:39.927Z,98960.47
2022-11-17T23:28:24.804Z,98962.13
2022-11-17T23:31:12.188Z,98958.44
2022-11-17T23:33:57.592Z,98970.38
2022-11-17T23:36:42.606Z,98972.88
2022-11-17T23:39:27.546Z,98954.31
2022-11-17T23:42:12.416Z,98970.38
2022-11-17T23:44:57.273Z,98979.34
2022-11-17T23:47:42.165Z,98986.09
2022-11-17T23:50:27.270Z,98985.00
2022-11-17T23:53:12.264Z,98968.38
2022-11-17T23:55:57.700Z,98966.44
2022-11-17T23:58:44.078Z,98987.09
